sensor_id;sensor_type;location;lat;lon;timestamp;pressure;altitude;pressure_sealevel;temperature;humidity
21728;BME280;11026;50.560;17.852;2022-12-10T00:01:41;98439.91;;;0.74;100.00
21728;BME280;11026;50.560;17.852;2022-12-10T00:04:10;98435.50;;;0.80;100.00
21728;BME280;11026;50.560;17.852;2022-12-10T00:06:38;98434.66;;;0.78;100.00
21728;BME280;11026;50.560;17.852;2022-12-10T00:09:09;98433.84;;;0.76;100.00
21728;BME280;11026;50.560;17.852;2022-12-10T00:11:39;98431.25;;;0.74;100.00
21728;BME280;11026;50.560;17.852;2022-12-10T00:14:07;98438.97;;;0.79;100.00
21728;BME280;11026;50.560;17.852;2022-12-10T00:16:36;98436.63;;;0.66;100.00
21728;BME280;11026;50.560;17.852;2022-12-10T00:19:06;98442.50;;;0.76;100.00
21728;BME280;11026;50.560;17.852;2022-12-10T00:21:35;98450.22;;;0.81;100.00
21728;BME280;11026;50.560;17.852;2022-12-10T00:24:04;98447.63;;;0.79;100.00
21728;BME280;11026;50.560;17.852;2022-12-10T00:26:34;98454.66;;;0.76;100.00
21728;BME280;11026;50.560;17.852;2022-12-10T00:29:03;98449.31;;;0.82;100.00
21728;BME280;11026;50.560;17.852;2022-12-10T00:31:33;98457.09;;;0.83;100.00
21728;BME280;11026;50.560;17.852;2022-12-10T00:34:04;98459.72;;;0.82;100.00
21728;BME280;11026;50.560;17.852;2022-12-10T00:36:36;98453.03;;;0.71;100.00
21728;BME280;11026;50.560;17.852;2022-12-10T00:39:04;98455.53;;;0.76;100.00
21728;BME280;11026;50.560;17.852;2022-12-10T00:41:32;98456.22;;;0.83;100.00
21728;BME280;11026;50.560;17.852;2022-12-10T00:43:59;98452.94;;;0.74;100.00
21728;BME280;11026;50.560;17.852;2022-12-10T00:46:27;98459.78;;;0.79;100.00
21728;BME280;11026;50.560;17.852;2022-12-10T00:48:55;98453.81;;;0.73;100.00
21728;BME280;11026;50.560;17.852;2022-12-10T00:51:24;98447.88;;;0.68;100.00
21728;BME280;11026;50.560;17.852;2022-12-10T00:53:54;98452.94;;;0.74;100.00
21728;BME280;11026;50.560;17.852;2022-12-10T00:56:24;98448.56;;;0.75;100.00
21728;BME280;11026;50.560;17.852;2022-12-10T00:58:52;98455.41;;;0.81;100.00
21728;BME280;11026;50.560;17.852;2022-12-10T01:01:23;98453.53;;;0.87;100.00
21728;BME280;11026;50.560;17.852;2022-12-10T01:03:53;98447.44;;;0.87;100.00
21728;BME280;11026;50.560;17.852;2022-12-10T01:06:22;98454.41;;;0.88;100.00
21728;BME280;11026;50.560;17.852;2022-12-10T01:08:51;98444.78;;;0.90;100.00
21728;BME280;11026;50.560;17.852;2022-12-10T01:11:24;98449.88;;;0.94;100.00
21728;BME280;11026;50.560;17.852;2022-12-10T01:13:52;98449.88;;;0.96;100.00
21728;BME280;11026;50.560;17.852;2022-12-10T01:16:27;98444.78;;;0.90;100.00
21728;BME280;11026;50.560;17.852;2022-12-10T01:18:56;98439.78;;;0.81;100.00
21728;BME280;11026;50.560;17.852;2022-12-10T01:21:30;98451.69;;;0.91;100.00
21728;BME280;11026;50.560;17.852;2022-12-10T01:23:59;98457.69;;;0.94;100.00
21728;BME280;11026;50.560;17.852;2022-12-10T01:26:35;98463.84;;;0.92;100.00
21728;BME280;11026;50.560;17.852;2022-12-10T01:29:04;98471.66;;;0.92;100.00
21728;BME280;11026;50.560;17.852;2022-12-10T01:31:38;98473.38;;;0.93;100.00
21728;BME280;11026;50.560;17.852;2022-12-10T01:34:13;98480.28;;;0.94;100.00
21728;BME280;11026;50.560;17.852;2022-12-10T01:36:43;98479.75;;;0.78;100.00
21728;BME280;11026;50.560;17.852;2022-12-10T01:39:14;98480.34;;;0.91;100.00
21728;BME280;11026;50.560;17.852;2022-12-10T01:41:45;98473.50;;;0.87;100.00
21728;BME280;11026;50.560;17.852;2022-12-10T01:46:48;98476.78;;;0.95;100.00
21728;BME280;11026;50.560;17.852;2022-12-10T01:49:19;98481.97;;;0.96;100.00
21728;BME280;11026;50.560;17.852;2022-12-10T01:51:52;98483.84;;;0.90;100.00
21728;BME280;11026;50.560;17.852;2022-12-10T01:54:31;98476.00;;;0.91;100.00
21728;BME280;11026;50.560;17.852;2022-12-10T01:59:33;98477.06;;;0.83;100.00
21728;BME280;11026;50.560;17.852;2022-12-10T02:02:10;98471.66;;;0.92;100.00
21728;BME280;11026;50.560;17.852;2022-12-10T02:07:24;98463.06;;;0.87;100.00
21728;BME280;11026;50.560;17.852;2022-12-10T02:15:16;98460.56;;;0.84;100.00
21728;BME280;11026;50.560;17.852;2022-12-10T02:17:51;98468.28;;;0.87;100.00
21728;BME280;11026;50.560;17.852;2022-12-10T02:20:28;98472.72;;;0.83;100.00
21728;BME280;11026;50.560;17.852;2022-12-10T02:28:39;98478.56;;;0.93;100.00
21728;BME280;11026;50.560;17.852;2022-12-10T02:31:17;98491.66;;;0.91;100.00
21728;BME280;11026;50.560;17.852;2022-12-10T02:33:50;98489.84;;;0.93;100.00
21728;BME280;11026;50.560;17.852;2022-12-10T02:36:20;98482.09;;;0.92;100.00
21728;BME280;11026;50.560;17.852;2022-12-10T02:38:51;98481.28;;;0.88;100.00
21728;BME280;11026;50.560;17.852;2022-12-10T02:41:28;98478.84;;;0.81;100.00
21728;BME280;11026;50.560;17.852;2022-12-10T02:44:00;98486.50;;;0.87;100.00
21728;BME280;11026;50.560;17.852;2022-12-10T02:46:30;98480.38;;;0.89;100.00
21728;BME280;11026;50.560;17.852;2022-12-10T02:49:02;98475.22;;;0.88;100.00
21728;BME280;11026;50.560;17.852;2022-12-10T02:51:32;98478.63;;;0.91;100.00
21728;BME280;11026;50.560;17.852;2022-12-10T02:54:40;98479.47;;;0.92;100.00
21728;BME280;11026;50.560;17.852;2022-12-10T03:05:38;98489.88;;;0.92;100.00
21728;BME280;11026;50.560;17.852;2022-12-10T03:13:15;98478.91;;;0.78;100.00
21728;BME280;11026;50.560;17.852;2022-12-10T03:15:44;98483.13;;;0.83;100.00
21728;BME280;11026;50.560;17.852;2022-12-10T03:18:15;98497.09;;;0.79;100.00
21728;BME280;11026;50.560;17.852;2022-12-10T03:20:45;98497.59;;;0.95;100.00
21728;BME280;11026;50.560;17.852;2022-12-10T03:23:16;98495.19;;;0.87;100.00
21728;BME280;11026;50.560;17.852;2022-12-10T03:25:44;98487.56;;;0.80;100.00
21728;BME280;11026;50.560;17.852;2022-12-10T03:28:14;98497.03;;;0.82;100.00
21728;BME280;11026;50.560;17.852;2022-12-10T03:30:51;98495.22;;;0.86;100.00
21728;BME280;11026;50.560;17.852;2022-12-10T03:33:20;98503.88;;;0.88;100.00
21728;BME280;11026;50.560;17.852;2022-12-10T03:35:48;98501.31;;;0.85;100.00
21728;BME280;11026;50.560;17.852;2022-12-10T03:38:18;98502.97;;;0.89;100.00
21728;BME280;11026;50.560;17.852;2022-12-10T03:40:45;98510.03;;;0.84;100.00
21728;BME280;11026;50.560;17.852;2022-12-10T03:43:13;98501.16;;;0.91;100.00
21728;BME280;11026;50.560;17.852;2022-12-10T03:45:41;98504.66;;;0.90;100.00
21728;BME280;11026;50.560;17.852;2022-12-10T03:48:09;98503.09;;;0.83;100.00
21728;BME280;11026;50.560;17.852;2022-12-10T03:50:36;98503.91;;;0.85;100.00
21728;BME280;11026;50.560;17.852;2022-12-10T03:53:04;98511.69;;;0.88;100.00
21728;BME280;11026;50.560;17.852;2022-12-10T03:55:31;98510.81;;;0.87;100.00
21728;BME280;11026;50.560;17.852;2022-12-10T03:57:59;98504.19;;;0.72;100.00
21728;BME280;11026;50.560;17.852;2022-12-10T04:00:33;98503.09;;;0.83;100.00
21728;BME280;11026;50.560;17.852;2022-12-10T04:03:00;98503.16;;;0.80;100.00
21728;BME280;11026;50.560;17.852;2022-12-10T04:05:27;98507.53;;;0.78;100.00
21728;BME280;11026;50.560;17.852;2022-12-10T04:07:55;98515.94;;;0.92;100.00
21728;BME280;11026;50.560;17.852;2022-12-10T04:10:22;98524.78;;;0.83;100.00
21728;BME280;11026;50.560;17.852;2022-12-10T04:12:49;98527.47;;;0.79;100.00
21728;BME280;11026;50.560;17.852;2022-12-10T04:15:43;98533.31;;;0.90;100.00
21728;BME280;11026;50.560;17.852;2022-12-10T04:18:29;98536.66;;;0.96;100.00
21728;BME280;11026;50.560;17.852;2022-12-10T04:21:02;98544.47;;;0.95;100.00
21728;BME280;11026;50.560;17.852;2022-12-10T04:23:48;98541.97;;;0.92;100.00
21728;BME280;11026;50.560;17.852;2022-12-10T04:26:34;98545.47;;;0.89;100.00
21728;BME280;11026;50.560;17.852;2022-12-10T04:29:26;98546.28;;;0.93;100.00
21728;BME280;11026;50.560;17.852;2022-12-10T04:31:54;98543.19;;;0.76;100.00
21728;BME280;11026;50.560;17.852;2022-12-10T04:34:23;98550.84;;;0.82;100.00
21728;BME280;11026;50.560;17.852;2022-12-10T04:36:51;98548.25;;;0.82;100.00
21728;BME280;11026;50.560;17.852;2022-12-10T04:39:18;98560.44;;;0.80;100.00
21728;BME280;11026;50.560;17.852;2022-12-10T04:41:47;98563.19;;;0.72;100.00
21728;BME280;11026;50.560;17.852;2022-12-10T04:44:15;98564.66;;;0.85;100.00
21728;BME280;11026;50.560;17.852;2022-12-10T04:46:43;98555.09;;;0.87;100.00
21728;BME280;11026;50.560;17.852;2022-12-10T04:49:12;98564.75;;;0.81;100.00
21728;BME280;11026;50.560;17.852;2022-12-10T04:51:40;98558.66;;;0.82;100.00
21728;BME280;11026;50.560;17.852;2022-12-10T04:54:13;98564.00;;;0.76;100.00
21728;BME280;11026;50.560;17.852;2022-12-10T04:56:43;98560.50;;;0.77;100.00
21728;BME280;11026;50.560;17.852;2022-12-10T04:59:10;98564.47;;;0.94;100.00
21728;BME280;11026;50.560;17.852;2022-12-10T05:01:37;98556.81;;;0.87;100.00
21728;BME280;11026;50.560;17.852;2022-12-10T05:04:07;98561.09;;;0.89;100.00
21728;BME280;11026;50.560;17.852;2022-12-10T05:06:35;98566.31;;;0.89;100.00
21728;BME280;11026;50.560;17.852;2022-12-10T05:09:04;98568.22;;;0.81;100.00
21728;BME280;11026;50.560;17.852;2022-12-10T05:11:32;98559.56;;;0.79;100.00
21728;BME280;11026;50.560;17.852;2022-12-10T05:14:01;98560.25;;;0.89;100.00
21728;BME280;11026;50.560;17.852;2022-12-10T05:16:31;98557.75;;;0.84;100.00
21728;BME280;11026;50.560;17.852;2022-12-10T05:18:59;98561.34;;;0.77;100.00
21728;BME280;11026;50.560;17.852;2022-12-10T05:21:29;98558.66;;;0.82;100.00
21728;BME280;11026;50.560;17.852;2022-12-10T05:24:17;98574.41;;;0.76;100.00
21728;BME280;11026;50.560;17.852;2022-12-10T05:26:45;98572.63;;;0.78;100.00
21728;BME280;11026;50.560;17.852;2022-12-10T05:29:13;98565.59;;;0.81;100.00
21728;BME280;11026;50.560;17.852;2022-12-10T05:31:40;98563.72;;;0.89;100.00
21728;BME280;11026;50.560;17.852;2022-12-10T05:34:10;98562.34;;;0.71;100.00
21728;BME280;11026;50.560;17.852;2022-12-10T05:36:38;98558.81;;;0.74;100.00
21728;BME280;11026;50.560;17.852;2022-12-10T05:39:09;98556.69;;;0.93;100.00
21728;BME280;11026;50.560;17.852;2022-12-10T05:41:38;98560.59;;;0.70;100.00
21728;BME280;11026;50.560;17.852;2022-12-10T05:44:13;98557.69;;;0.86;100.00
21728;BME280;11026;50.560;17.852;2022-12-10T05:46:40;98556.78;;;0.88;100.00
21728;BME280;11026;50.560;17.852;2022-12-10T05:49:07;98551.09;;;0.69;100.00
21728;BME280;11026;50.560;17.852;2022-12-10T05:51:42;98552.59;;;0.81;100.00
21728;BME280;11026;50.560;17.852;2022-12-10T05:54:09;98551.84;;;0.74;100.00
21728;BME280;11026;50.560;17.852;2022-12-10T05:56:37;98554.44;;;0.76;100.00
21728;BME280;11026;50.560;17.852;2022-12-10T05:59:04;98562.91;;;0.87;100.00
21728;BME280;11026;50.560;17.852;2022-12-10T06:01:40;98558.44;;;0.91;100.00
21728;BME280;11026;50.560;17.852;2022-12-10T06:04:07;98563.06;;;0.80;100.00
21728;BME280;11026;50.560;17.852;2022-12-10T06:06:38;98562.78;;;0.92;100.00
21728;BME280;11026;50.560;17.852;2022-12-10T06:09:07;98558.66;;;0.82;100.00
21728;BME280;11026;50.560;17.852;2022-12-10T06:11:37;98557.75;;;0.83;100.00
21728;BME280;11026;50.560;17.852;2022-12-10T06:14:05;98562.44;;;0.65;100.00
21728;BME280;11026;50.560;17.852;2022-12-10T06:16:32;98565.72;;;0.75;100.00
21728;BME280;11026;50.560;17.852;2022-12-10T06:18:59;98566.47;;;0.82;100.00
21728;BME280;11026;50.560;17.852;2022-12-10T06:21:27;98564.69;;;0.84;100.00
21728;BME280;11026;50.560;17.852;2022-12-10T06:23:54;98558.72;;;0.79;100.00
21728;BME280;11026;50.560;17.852;2022-12-10T06:26:25;98565.75;;;0.73;100.00
21728;BME280;11026;50.560;17.852;2022-12-10T06:28:53;98563.22;;;0.70;100.00
21728;BME280;11026;50.560;17.852;2022-12-10T06:31:21;98566.63;;;0.74;100.00
21728;BME280;11026;50.560;17.852;2022-12-10T06:33:49;98564.84;;;0.76;100.00
21728;BME280;11026;50.560;17.852;2022-12-10T06:36:16;98561.47;;;0.71;100.00
21728;BME280;11026;50.560;17.852;2022-12-10T06:38:45;98569.38;;;0.66;100.00
21728;BME280;11026;50.560;17.852;2022-12-10T06:41:14;98572.00;;;0.65;100.00
21728;BME280;11026;50.560;17.852;2022-12-10T06:43:42;98578.81;;;0.70;100.00
21728;BME280;11026;50.560;17.852;2022-12-10T06:46:12;98582.22;;;0.74;100.00
21728;BME280;11026;50.560;17.852;2022-12-10T06:48:40;98592.50;;;0.83;100.00
21728;BME280;11026;50.560;17.852;2022-12-10T06:51:09;98593.59;;;0.71;100.00
21728;BME280;11026;50.560;17.852;2022-12-10T06:53:38;98592.53;;;0.79;100.00
21728;BME280;11026;50.560;17.852;2022-12-10T06:56:07;98594.53;;;0.67;100.00
21728;BME280;11026;50.560;17.852;2022-12-10T06:58:37;98598.69;;;0.76;100.00
21728;BME280;11026;50.560;17.852;2022-12-10T07:01:13;98606.34;;;0.84;100.00
21728;BME280;11026;50.560;17.852;2022-12-10T07:03:41;98607.06;;;0.92;100.00
21728;BME280;11026;50.560;17.852;2022-12-10T07:06:10;98600.19;;;0.88;100.00
21728;BME280;11026;50.560;17.852;2022-12-10T07:08:37;98609.59;;;0.95;100.00
21728;BME280;11026;50.560;17.852;2022-12-10T07:11:07;98619.94;;;0.98;100.00
21728;BME280;11026;50.560;17.852;2022-12-10T07:13:34;98624.41;;;0.93;100.00
21728;BME280;11026;50.560;17.852;2022-12-10T07:16:14;98627.06;;;0.90;100.00
21728;BME280;11026;50.560;17.852;2022-12-10T07:18:42;98621.13;;;0.83;100.00
21728;BME280;11026;50.560;17.852;2022-12-10T07:21:22;98631.50;;;0.85;100.00
21728;BME280;11026;50.560;17.852;2022-12-10T07:23:52;98630.56;;;0.89;100.00
21728;BME280;11026;50.560;17.852;2022-12-10T07:26:21;98630.50;;;0.90;100.00
21728;BME280;11026;50.560;17.852;2022-12-10T07:28:48;98614.56;;;1.07;100.00
21728;BME280;11026;50.560;17.852;2022-12-10T07:31:20;98610.31;;;1.03;100.00
21728;BME280;11026;50.560;17.852;2022-12-10T07:33:50;98612.19;;;0.95;100.00
21728;BME280;11026;50.560;17.852;2022-12-10T07:36:18;98611.25;;;0.99;100.00
21728;BME280;11026;50.560;17.852;2022-12-10T07:38:46;98616.63;;;0.90;100.00
21728;BME280;11026;50.560;17.852;2022-12-10T07:41:14;98619.19;;;0.93;100.00
21728;BME280;11026;50.560;17.852;2022-12-10T07:43:43;98624.44;;;0.91;100.00
21728;BME280;11026;50.560;17.852;2022-12-10T07:46:15;98638.53;;;0.80;100.00
21728;BME280;11026;50.560;17.852;2022-12-10T07:48:44;98628.13;;;0.78;100.00
21728;BME280;11026;50.560;17.852;2022-12-10T07:51:13;98629.84;;;0.81;100.00
21728;BME280;11026;50.560;17.852;2022-12-10T07:53:41;98630.72;;;0.80;100.00
21728;BME280;11026;50.560;17.852;2022-12-10T07:56:11;98645.66;;;0.71;100.00
21728;BME280;11026;50.560;17.852;2022-12-10T07:58:43;98650.06;;;0.66;100.00
21728;BME280;11026;50.560;17.852;2022-12-10T08:01:16;98659.28;;;0.83;100.00
21728;BME280;11026;50.560;17.852;2022-12-10T08:03:44;98650.63;;;0.84;100.00
21728;BME280;11026;50.560;17.852;2022-12-10T08:06:16;98671.38;;;0.87;100.00
21728;BME280;11026;50.560;17.852;2022-12-10T08:08:44;98677.59;;;0.78;100.00
21728;BME280;11026;50.560;17.852;2022-12-10T08:11:13;98680.16;;;0.81;100.00
21728;BME280;11026;50.560;17.852;2022-12-10T08:13:40;98681.88;;;0.84;100.00
21728;BME280;11026;50.560;17.852;2022-12-10T08:16:15;98683.56;;;0.85;100.00
21728;BME280;11026;50.560;17.852;2022-12-10T08:18:44;98671.38;;;0.87;100.00
21728;BME280;11026;50.560;17.852;2022-12-10T08:21:18;98671.31;;;0.90;100.00
21728;BME280;11026;50.560;17.852;2022-12-10T08:23:47;98675.94;;;0.76;100.00
21728;BME280;11026;50.560;17.852;2022-12-10T08:26:17;98668.97;;;0.76;100.00
21728;BME280;11026;50.560;17.852;2022-12-10T08:28:51;98660.13;;;0.85;100.00
21728;BME280;11026;50.560;17.852;2022-12-10T08:31:21;98655.13;;;0.76;100.00
21728;BME280;11026;50.560;17.852;2022-12-10T08:33:50;98658.44;;;0.82;100.00
21728;BME280;11026;50.560;17.852;2022-12-10T08:36:18;98658.44;;;0.82;100.00
21728;BME280;11026;50.560;17.852;2022-12-10T08:38:46;98657.59;;;0.82;100.00
21728;BME280;11026;50.560;17.852;2022-12-10T08:41:17;98655.97;;;0.74;100.00
21728;BME280;11026;50.560;17.852;2022-12-10T08:43:46;98656.72;;;0.81;100.00
21728;BME280;11026;50.560;17.852;2022-12-10T08:46:15;98662.78;;;0.82;100.00
21728;BME280;11026;50.560;17.852;2022-12-10T08:48:44;98661.91;;;0.83;100.00
21728;BME280;11026;50.560;17.852;2022-12-10T08:51:15;98660.09;;;0.86;100.00
21728;BME280;11026;50.560;17.852;2022-12-10T08:53:43;98661.75;;;0.90;100.00
21728;BME280;11026;50.560;17.852;2022-12-10T08:56:12;98665.38;;;0.83;100.00
21728;BME280;11026;50.560;17.852;2022-12-10T08:58:41;98661.03;;;0.84;100.00
21728;BME280;11026;50.560;17.852;2022-12-10T09:01:11;98661.09;;;0.81;100.00
21728;BME280;11026;50.560;17.852;2022-12-10T09:03:38;98660.09;;;0.86;100.00
21728;BME280;11026;50.560;17.852;2022-12-10T09:06:12;98670.50;;;0.86;100.00
21728;BME280;11026;50.560;17.852;2022-12-10T09:08:46;98656.44;;;0.96;100.00
21728;BME280;11026;50.560;17.852;2022-12-10T09:11:21;98660.78;;;0.96;100.00
21728;BME280;11026;50.560;17.852;2022-12-10T09:13:55;98660.19;;;0.83;100.00
21728;BME280;11026;50.560;17.852;2022-12-10T09:16:34;98657.53;;;0.85;100.00
21728;BME280;11026;50.560;17.852;2022-12-10T09:19:03;98660.31;;;0.76;100.00
21728;BME280;11026;50.560;17.852;2022-12-10T09:21:31;98659.22;;;0.87;100.00
21728;BME280;11026;50.560;17.852;2022-12-10T09:23:59;98659.13;;;0.92;100.00
21728;BME280;11026;50.560;17.852;2022-12-10T09:26:27;98640.34;;;0.74;100.00
21728;BME280;11026;50.560;17.852;2022-12-10T09:28:54;98654.03;;;0.86;100.00
21728;BME280;11026;50.560;17.852;2022-12-10T09:31:22;98650.75;;;0.76;100.00
21728;BME280;11026;50.560;17.852;2022-12-10T09:33:51;98646.59;;;0.66;100.00
21728;BME280;11026;50.560;17.852;2022-12-10T09:36:20;98648.06;;;0.79;100.00
21728;BME280;11026;50.560;17.852;2022-12-10T09:38:50;98636.63;;;0.89;100.00
21728;BME280;11026;50.560;17.852;2022-12-10T09:41:40;98640.91;;;0.90;100.00
21728;BME280;11026;50.560;17.852;2022-12-10T09:46:55;98646.94;;;0.94;100.00
21728;BME280;11026;50.560;17.852;2022-12-10T09:52:14;98643.44;;;0.95;100.00
21728;BME280;11026;50.560;17.852;2022-12-10T09:54:52;98639.97;;;0.96;100.00
21728;BME280;11026;50.560;17.852;2022-12-10T09:57:30;98642.50;;;0.99;100.00
21728;BME280;11026;50.560;17.852;2022-12-10T10:00:16;98643.31;;;1.01;100.00
21728;BME280;11026;50.560;17.852;2022-12-10T10:02:48;98643.38;;;0.98;100.00
21728;BME280;11026;50.560;17.852;2022-12-10T10:05:24;98632.84;;;1.04;100.00
21728;BME280;11026;50.560;17.852;2022-12-10T10:07:59;98636.97;;;1.14;100.00
21728;BME280;11026;50.560;17.852;2022-12-10T10:10:32;98633.47;;;1.17;100.00
21728;BME280;11026;50.560;17.852;2022-12-10T10:15:43;98631.75;;;1.14;100.00
21728;BME280;11026;50.560;17.852;2022-12-10T10:21:00;98629.19;;;1.13;100.00
21728;BME280;11026;50.560;17.852;2022-12-10T10:23:28;98619.53;;;1.18;100.00
21728;BME280;11026;50.560;17.852;2022-12-10T10:25:56;98615.28;;;1.14;100.00
21728;BME280;11026;50.560;17.852;2022-12-10T10:28:23;98596.06;;;1.19;100.00
21728;BME280;11026;50.560;17.852;2022-12-10T10:30:52;98603.09;;;1.14;100.00
21728;BME280;11026;50.560;17.852;2022-12-10T10:33:21;98596.94;;;1.18;100.00
21728;BME280;11026;50.560;17.852;2022-12-10T10:35:53;98592.78;;;1.11;100.00
21728;BME280;11026;50.560;17.852;2022-12-10T10:38:24;98600.34;;;1.23;100.00
21728;BME280;11026;50.560;17.852;2022-12-10T10:40:59;98608.22;;;1.20;100.00
21728;BME280;11026;50.560;17.852;2022-12-10T10:43:40;98588.25;;;1.19;100.00
21728;BME280;11026;50.560;17.852;2022-12-10T10:46:30;98605.88;;;1.07;100.00
21728;BME280;11026;50.560;17.852;2022-12-10T10:49:31;98609.97;;;1.18;100.00
21728;BME280;11026;50.560;17.852;2022-12-10T10:52:12;98615.19;;;1.18;100.00
21728;BME280;11026;50.560;17.852;2022-12-10T10:54:44;98626.53;;;1.16;100.00
21728;BME280;11026;50.560;17.852;2022-12-10T10:57:32;98621.97;;;1.26;100.00
21728;BME280;11026;50.560;17.852;2022-12-10T11:00:19;98615.03;;;1.26;100.00
21728;BME280;11026;50.560;17.852;2022-12-10T11:02:51;98617.72;;;1.21;100.00
21728;BME280;11026;50.560;17.852;2022-12-10T11:05:31;98620.47;;;1.15;100.00
21728;BME280;11026;50.560;17.852;2022-12-10T11:08:12;98617.72;;;1.23;100.00
21728;BME280;11026;50.560;17.852;2022-12-10T11:10:51;98627.28;;;1.21;100.00
21728;BME280;11026;50.560;17.852;2022-12-10T11:13:28;98629.06;;;1.20;100.00
21728;BME280;11026;50.560;17.852;2022-12-10T11:18:41;98636.09;;;1.15;100.00
21728;BME280;11026;50.560;17.852;2022-12-10T11:23:41;98640.28;;;1.22;100.00
21728;BME280;11026;50.560;17.852;2022-12-10T11:29:27;98629.00;;;1.22;100.00
21728;BME280;11026;50.560;17.852;2022-12-10T11:35:34;98616.66;;;1.32;100.00
21728;BME280;11026;50.560;17.852;2022-12-10T11:40:11;98620.19;;;1.29;100.00
21728;BME280;11026;50.560;17.852;2022-12-10T11:43:11;98622.78;;;1.31;100.00
21728;BME280;11026;50.560;17.852;2022-12-10T11:45:55;98623.63;;;1.30;100.00
21728;BME280;11026;50.560;17.852;2022-12-10T11:51:42;98616.66;;;1.30;100.00
21728;BME280;11026;50.560;17.852;2022-12-10T11:54:37;98627.09;;;1.32;100.00
21728;BME280;11026;50.560;17.852;2022-12-10T11:57:30;98623.63;;;1.30;100.00
21728;BME280;11026;50.560;17.852;2022-12-10T12:00:08;98626.28;;;1.28;100.00
21728;BME280;11026;50.560;17.852;2022-12-10T12:05:43;98619.44;;;1.24;100.00
21728;BME280;11026;50.560;17.852;2022-12-10T12:11:59;98625.44;;;1.28;100.00
21728;BME280;11026;50.560;17.852;2022-12-10T12:14:24;98622.94;;;1.21;100.00
21728;BME280;11026;50.560;17.852;2022-12-10T12:17:16;98609.84;;;1.25;100.00
21728;BME280;11026;50.560;17.852;2022-12-10T12:19:50;98617.72;;;1.21;100.00
21728;BME280;11026;50.560;17.852;2022-12-10T12:22:28;98625.94;;;1.03;100.00
21728;BME280;11026;50.560;17.852;2022-12-10T12:25:07;98622.28;;;1.10;100.00
21728;BME280;11026;50.560;17.852;2022-12-10T12:27:46;98614.56;;;1.07;100.00
21728;BME280;11026;50.560;17.852;2022-12-10T12:30:22;98617.22;;;1.04;100.00
21728;BME280;11026;50.560;17.852;2022-12-10T12:33:41;98613.72;;;1.05;100.00
21728;BME280;11026;50.560;17.852;2022-12-10T12:36:19;98615.38;;;1.09;100.00
21728;BME280;11026;50.560;17.852;2022-12-10T12:44:40;98607.56;;;1.09;100.00
21728;BME280;11026;50.560;17.852;2022-12-10T12:47:22;98606.66;;;1.10;100.00
21728;BME280;11026;50.560;17.852;2022-12-10T12:49:57;98601.66;;;1.01;100.00
21728;BME280;11026;50.560;17.852;2022-12-10T12:52:40;98602.59;;;0.97;100.00
21728;BME280;11026;50.560;17.852;2022-12-10T13:00:43;98613.78;;;1.02;100.00
21728;BME280;11026;50.560;17.852;2022-12-10T13:06:19;98612.06;;;1.01;100.00
21728;BME280;11026;50.560;17.852;2022-12-10T13:11:35;98615.56;;;1.00;100.00
21728;BME280;11026;50.560;17.852;2022-12-10T13:22:00;98627.94;;;0.89;100.00
21728;BME280;11026;50.560;17.852;2022-12-10T13:24:47;98622.75;;;0.89;100.00
21728;BME280;11026;50.560;17.852;2022-12-10T13:27:32;98626.09;;;0.94;100.00
21728;BME280;11026;50.560;17.852;2022-12-10T13:43:36;98636.50;;;0.94;100.00
21728;BME280;11026;50.560;17.852;2022-12-10T13:46:33;98639.06;;;0.97;100.00
21728;BME280;11026;50.560;17.852;2022-12-10T13:49:03;98636.56;;;0.91;100.00
21728;BME280;11026;50.560;17.852;2022-12-10T13:54:44;98641.78;;;0.91;100.00
21728;BME280;11026;50.560;17.852;2022-12-10T13:57:22;98642.66;;;0.90;100.00
21728;BME280;11026;50.560;17.852;2022-12-10T14:00:23;98643.53;;;0.92;100.00
21728;BME280;11026;50.560;17.852;2022-12-10T14:08:36;98655.81;;;0.84;100.00
21728;BME280;11026;50.560;17.852;2022-12-10T14:11:18;98651.63;;;0.75;100.00
21728;BME280;11026;50.560;17.852;2022-12-10T14:13:51;98660.09;;;0.88;100.00
21728;BME280;11026;50.560;17.852;2022-12-10T14:16:22;98654.84;;;0.89;100.00
21728;BME280;11026;50.560;17.852;2022-12-10T14:18:58;98651.38;;;0.89;100.00
21728;BME280;11026;50.560;17.852;2022-12-10T14:21:31;98650.44;;;0.93;100.00
21728;BME280;11026;50.560;17.852;2022-12-10T14:23:59;98653.97;;;0.89;100.00
21728;BME280;11026;50.560;17.852;2022-12-10T14:26:30;98664.13;;;1.03;100.00
21728;BME280;11026;50.560;17.852;2022-12-10T14:29:20;98652.84;;;1.02;100.00
21728;BME280;11026;50.560;17.852;2022-12-10T14:31:56;98652.03;;;0.98;100.00
21728;BME280;11026;50.560;17.852;2022-12-10T14:34:27;98650.44;;;0.93;100.00
21728;BME280;11026;50.560;17.852;2022-12-10T14:37:00;98654.72;;;0.95;100.00
21728;BME280;11026;50.560;17.852;2022-12-10T14:39:31;98662.56;;;0.94;100.00
21728;BME280;11026;50.560;17.852;2022-12-10T14:42:06;98667.66;;;0.98;100.00
21728;BME280;11026;50.560;17.852;2022-12-10T14:44:39;98676.38;;;0.99;100.00
21728;BME280;11026;50.560;17.852;2022-12-10T14:47:18;98677.31;;;0.93;100.00
21728;BME280;11026;50.560;17.852;2022-12-10T14:49:49;98683.53;;;0.88;100.00
21728;BME280;11026;50.560;17.852;2022-12-10T14:52:23;98676.63;;;0.85;100.00
21728;BME280;11026;50.560;17.852;2022-12-10T14:54:51;98673.91;;;0.91;100.00
21728;BME280;11026;50.560;17.852;2022-12-10T14:57:28;98679.97;;;0.92;100.00
21728;BME280;11026;50.560;17.852;2022-12-10T15:00:16;98676.69;;;0.81;100.00
21728;BME280;11026;50.560;17.852;2022-12-10T15:02:48;98671.59;;;0.74;100.00
21728;BME280;11026;50.560;17.852;2022-12-10T15:05:20;98679.31;;;0.81;100.00
21728;BME280;11026;50.560;17.852;2022-12-10T15:07:56;98670.69;;;0.77;100.00
21728;BME280;11026;50.560;17.852;2022-12-10T15:10:39;98671.84;;;0.59;100.00
21728;BME280;11026;50.560;17.852;2022-12-10T15:13:19;98668.22;;;0.69;100.00